createdAt,value
2023-02-25T00:02:26.666Z,3.88
2023-02-25T00:21:13.344Z,4.22
2023-02-25T00:24:58.834Z,4.30
2023-02-25T00:50:56.234Z,4.29
2023-02-25T00:54:48.516Z,4.18
2023-02-25T00:58:41.251Z,4.21
2023-02-25T01:06:30.964Z,4.22
2023-02-25T01:10:25.115Z,4.19
2023-02-25T01:14:18.461Z,4.21
2023-02-25T01:29:51.480Z,4.27
2023-02-25T01:33:43.943Z,4.26
2023-02-25T01:56:37.504Z,4.03
2023-02-25T02:00:00.660Z,3.93
2023-02-25T02:03:47.959Z,3.83
2023-02-25T02:07:36.985Z,3.85
2023-02-25T02:11:19.748Z,3.89
2023-02-25T02:15:02.669Z,3.90
2023-02-25T02:53:51.906Z,3.73
2023-02-25T03:01:21.247Z,3.72
2023-02-25T03:24:45.093Z,3.97
2023-02-25T03:28:40.237Z,3.93
2023-02-25T03:32:41.966Z,3.94
2023-02-25T03:36:34.726Z,3.86
2023-02-25T03:40:32.709Z,3.77
2023-02-25T04:03:40.847Z,3.50
2023-02-25T04:07:33.819Z,3.36
2023-02-25T04:11:26.111Z,3.35
2023-02-25T04:26:42.298Z,3.30
2023-02-25T04:30:37.442Z,3.30
2023-02-25T04:34:23.220Z,3.26
2023-02-25T04:38:15.783Z,3.24
2023-02-25T04:42:09.027Z,3.24
2023-02-25T04:45:59.298Z,3.24
2023-02-25T05:05:08.660Z,3.24
2023-02-25T05:09:00.492Z,3.20
2023-02-25T05:12:53.678Z,3.18
2023-02-25T05:16:31.202Z,3.16
2023-02-25T05:32:05.772Z,3.30
2023-02-25T05:35:41.460Z,3.23
2023-02-25T05:39:28.414Z,3.26
2023-02-25T05:46:33.891Z,3.44
2023-02-25T05:54:29.221Z,3.63
2023-02-25T05:57:58.727Z,3.67
2023-02-25T06:01:50.193Z,3.72
2023-02-25T06:24:43.260Z,4.16
2023-02-25T06:28:35.269Z,4.18
2023-02-25T06:32:29.045Z,4.24
2023-02-25T06:44:17.203Z,4.49
2023-02-25T06:47:56.864Z,4.73
2023-02-25T06:51:34.672Z,5.31
2023-02-25T06:54:40.435Z,5.68
2023-02-25T06:58:32.476Z,6.25
2023-02-25T07:21:06.676Z,7.56
2023-02-25T07:24:43.056Z,7.74
2023-02-25T07:28:35.685Z,7.85
2023-02-25T07:32:28.859Z,8.01
2023-02-25T07:51:15.972Z,8.89
2023-02-25T07:54:06.902Z,9.07
2023-02-25T07:57:03.018Z,9.27
2023-02-25T07:59:58.943Z,9.46
2023-02-25T08:02:36.043Z,9.60
2023-02-25T08:05:55.763Z,9.68
2023-02-25T08:08:56.969Z,9.75
2023-02-25T08:11:50.745Z,9.83
2023-02-25T08:15:08.037Z,9.99
2023-02-25T08:18:01.282Z,10.18
2023-02-25T08:21:00.796Z,10.33
2023-02-25T08:23:41.357Z,10.45
2023-02-25T08:26:41.980Z,10.50
2023-02-25T08:30:27.080Z,10.45
2023-02-25T08:33:13.037Z,10.44
2023-02-25T08:36:08.116Z,10.49
2023-02-25T08:39:14.541Z,10.65
2023-02-25T08:42:06.532Z,10.76
2023-02-25T08:45:15.889Z,10.89
2023-02-25T08:48:29.508Z,11.06
2023-02-25T08:51:40.375Z,11.19
2023-02-25T08:54:19.058Z,11.26
2023-02-25T08:57:17.107Z,11.36
2023-02-25T09:00:15.281Z,11.40
2023-02-25T09:03:24.412Z,11.43
2023-02-25T09:06:13.227Z,11.54
2023-02-25T09:09:30.865Z,11.77
2023-02-25T09:12:13.717Z,12.05
2023-02-25T09:15:07.802Z,12.25
2023-02-25T09:18:00.180Z,12.33
2023-02-25T09:20:50.176Z,12.49
2023-02-25T09:23:52.669Z,12.67
2023-02-25T09:26:29.238Z,12.61
2023-02-25T09:29:29.691Z,12.48
2023-02-25T09:32:18.996Z,12.30
2023-02-25T09:35:01.177Z,12.20
2023-02-25T09:37:41.940Z,12.19
2023-02-25T09:40:24.160Z,12.30
2023-02-25T09:43:50.195Z,12.24
2023-02-25T09:46:40.723Z,12.32
2023-02-25T09:49:51.693Z,12.52
2023-02-25T09:53:14.299Z,12.74
2023-02-25T09:56:07.372Z,13.01
2023-02-25T09:58:59.136Z,13.14
2023-02-25T10:01:46.570Z,13.07
2023-02-25T10:04:56.249Z,12.85
2023-02-25T10:08:00.143Z,12.60
2023-02-25T10:11:16.930Z,12.31
2023-02-25T10:14:32.191Z,12.14
2023-02-25T10:17:43.801Z,12.15
2023-02-25T10:20:31.700Z,12.14
2023-02-25T10:24:01.520Z,11.94
2023-02-25T10:26:58.015Z,11.64
2023-02-25T10:29:50.006Z,11.39
2023-02-25T10:33:04.178Z,11.10
2023-02-25T10:36:15.502Z,10.77
2023-02-25T10:39:08.059Z,10.57
2023-02-25T10:42:04.537Z,10.37
2023-02-25T10:45:29.484Z,10.25
2023-02-25T10:48:35.861Z,10.08
2023-02-25T10:51:45.951Z,9.97
2023-02-25T10:55:29.329Z,9.86
2023-02-25T10:58:51.919Z,9.71
2023-02-25T11:01:38.973Z,9.56
2023-02-25T11:05:07.758Z,9.46
2023-02-25T11:08:14.889Z,9.40
2023-02-25T11:11:51.016Z,9.42
2023-02-25T11:15:09.602Z,9.39
2023-02-25T11:18:41.031Z,9.39
2023-02-25T11:22:01.903Z,9.38
2023-02-25T11:25:09.413Z,9.35
2023-02-25T11:28:13.950Z,9.29
2023-02-25T11:31:52.467Z,9.17
2023-02-25T11:35:28.766Z,9.00
2023-02-25T11:39:27.059Z,8.76
2023-02-25T11:42:39.719Z,8.61
2023-02-25T11:46:09.814Z,8.49
2023-02-25T11:49:59.617Z,8.30
2023-02-25T11:54:07.445Z,8.08
2023-02-25T12:01:45.404Z,7.77
2023-02-25T12:05:51.068Z,7.55
2023-02-25T12:09:00.930Z,7.40
2023-02-25T12:12:25.083Z,7.30
2023-02-25T12:16:19.261Z,7.19
2023-02-25T12:20:08.000Z,6.93
2023-02-25T12:23:51.825Z,6.69
2023-02-25T12:27:44.425Z,6.52
2023-02-25T12:31:15.912Z,6.22
2023-02-25T12:34:54.833Z,5.99
2023-02-25T12:39:10.299Z,5.75
2023-02-25T12:42:32.509Z,5.50
2023-02-25T12:46:23.335Z,5.36
2023-02-25T12:50:39.579Z,5.23
2023-02-25T12:54:19.172Z,5.14
2023-02-25T12:58:09.535Z,5.12
2023-02-25T13:01:55.620Z,5.05
2023-02-25T13:05:57.312Z,5.00
2023-02-25T13:10:03.043Z,4.97
2023-02-25T13:13:57.153Z,4.94
2023-02-25T13:17:47.305Z,4.92
2023-02-25T13:21:44.356Z,4.94
2023-02-25T13:25:28.420Z,4.97
2023-02-25T13:29:24.353Z,5.03
2023-02-25T13:33:14.512Z,5.11
2023-02-25T13:37:22.730Z,5.17
2023-02-25T13:41:47.238Z,5.15
2023-02-25T13:45:47.337Z,5.10
2023-02-25T13:49:40.675Z,5.00
2023-02-25T13:52:56.966Z,4.84
2023-02-25T13:56:40.716Z,4.65
2023-02-25T14:00:25.552Z,4.46
2023-02-25T14:04:15.553Z,4.33
2023-02-25T14:08:18.746Z,4.27
2023-02-25T14:12:12.821Z,4.24
2023-02-25T14:16:36.818Z,4.31
2023-02-25T14:20:22.303Z,4.44
2023-02-25T14:23:55.158Z,4.57
2023-02-25T14:27:50.492Z,4.68
2023-02-25T14:31:37.898Z,4.79
2023-02-25T14:35:28.328Z,4.86
2023-02-25T14:39:28.474Z,4.97
2023-02-25T14:43:34.008Z,5.06
2023-02-25T14:47:29.850Z,5.14
2023-02-25T14:51:35.189Z,5.17
2023-02-25T14:55:38.601Z,5.20
2023-02-25T14:59:46.394Z,5.23
2023-02-25T15:03:43.217Z,5.29
2023-02-25T15:12:01.439Z,5.52
2023-02-25T15:15:54.206Z,5.69
2023-02-25T15:19:56.060Z,5.80
2023-02-25T15:23:53.481Z,5.85
2023-02-25T15:28:13.743Z,5.88
2023-02-25T15:32:13.221Z,5.86
2023-02-25T15:36:05.288Z,5.82
2023-02-25T15:39:57.632Z,5.76
2023-02-25T15:43:40.041Z,5.66
2023-02-25T15:47:41.372Z,5.52
2023-02-25T15:51:47.917Z,5.38
2023-02-25T15:55:56.413Z,5.25
2023-02-25T15:59:56.704Z,5.15
2023-02-25T16:03:47.226Z,5.08
2023-02-25T16:18:58.822Z,4.62
2023-02-25T16:22:58.493Z,4.56
2023-02-25T16:26:47.831Z,4.47
2023-02-25T16:30:49.594Z,4.37
2023-02-25T16:34:48.870Z,4.30
2023-02-25T16:38:46.473Z,4.24
2023-02-25T16:42:38.444Z,4.17
2023-02-25T17:31:15.068Z,3.66
2023-02-25T18:05:19.272Z,3.46
2023-02-25T18:08:51.705Z,3.36
2023-02-25T18:12:33.718Z,3.32
2023-02-25T18:16:12.816Z,3.27
2023-02-25T18:20:14.296Z,3.22
2023-02-25T18:27:42.206Z,3.27
2023-02-25T18:37:54.476Z,3.50
2023-02-25T18:41:46.945Z,3.43
2023-02-25T19:10:40.651Z,3.55
2023-02-25T19:14:22.209Z,3.56
2023-02-25T19:17:27.106Z,3.60
2023-02-25T19:20:19.791Z,3.57
2023-02-25T19:23:26.507Z,3.59
2023-02-25T19:26:44.407Z,3.57
2023-02-25T19:29:44.953Z,3.57
2023-02-25T19:33:13.311Z,3.56
2023-02-25T19:36:24.137Z,3.55
2023-02-25T19:39:36.290Z,3.55
2023-02-25T19:43:12.280Z,3.55
2023-02-25T19:50:30.283Z,3.55
2023-02-25T19:57:54.253Z,3.50
2023-02-25T20:16:41.273Z,3.57
2023-02-25T20:20:11.943Z,3.54
2023-02-25T20:24:04.038Z,3.48
2023-02-25T20:27:43.766Z,3.44
2023-02-25T20:31:26.376Z,3.42
2023-02-25T20:35:02.436Z,3.41
2023-02-25T20:38:47.852Z,3.41
2023-02-25T20:42:21.651Z,3.45
2023-02-25T21:05:18.209Z,3.48
2023-02-25T21:08:59.312Z,3.44
2023-02-25T21:12:51.957Z,3.37
2023-02-25T21:16:24.168Z,3.36
2023-02-25T21:24:42.915Z,3.32
2023-02-25T21:28:20.323Z,3.29
2023-02-25T21:32:12.672Z,3.28
2023-02-25T21:35:52.559Z,3.27
2023-02-25T21:39:59.358Z,3.35
2023-02-25T21:43:24.993Z,3.34
2023-02-25T21:47:16.856Z,3.33
2023-02-25T21:51:08.378Z,3.34
2023-02-25T22:10:15.902Z,3.41
2023-02-25T22:14:09.632Z,3.41
2023-02-25T22:17:53.360Z,3.43
2023-02-25T22:37:36.411Z,3.22
2023-02-25T22:41:20.841Z,3.13
2023-02-25T22:45:12.745Z,3.11
2023-02-25T22:49:05.819Z,3.09
2023-02-25T23:04:47.950Z,3.29
2023-02-25T23:08:33.659Z,3.30
2023-02-25T23:12:25.890Z,3.22
2023-02-25T23:24:27.931Z,3.25
2023-02-25T23:28:19.732Z,3.26
2023-02-25T23:32:04.822Z,3.32
2023-02-25T23:35:57.011Z,3.38
2023-02-25T23:39:50.201Z,3.38
